Time;durP1;ratioP1;P1;durP2;ratioP2;P2;SDS_P1;SDS_P2;PMS_P1;PMS_P2;Temp;Humidity;BMP_temperature;BMP_pressure;BME280_temperature;BME280_humidity;BME280_pressure;Samples;Min_cycle;Max_cycle;Signal;HPM_P1;HPM_P2
2023/01/07 00:01:33;;;;;;;244.15;107.13;;;1.60;99.90;;;;;;5054458;28;20724;-73
2023/01/07 00:04:00;;;;;;;252.57;116.30;;;1.60;99.90;;;;;;5054445;28;20394;-73
2023/01/07 00:06:38;;;;;;;261.48;117.38;;;1.60;99.90;;;;;;5053812;28;20048;-73
2023/01/07 00:09:06;;;;;;;241.93;108.53;;;1.70;99.90;;;;;;5053342;28;20025;-73
2023/01/07 00:11:35;;;;;;;255.85;115.22;;;1.70;99.90;;;;;;5053598;28;20055;-73
2023/01/07 00:14:02;;;;;;;257.40;115.93;;;1.60;99.90;;;;;;5053308;28;20023;-73
2023/01/07 00:16:31;;;;;;;256.95;120.55;;;1.50;99.90;;;;;;5053489;28;20025;-73
2023/01/07 00:18:59;;;;;;;267.52;118.63;;;1.50;99.90;;;;;;5044754;28;20026;-73
2023/01/07 00:21:26;;;;;;;252.77;114.90;;;1.50;99.90;;;;;;5033341;28;20032;-73
2023/01/07 00:23:55;;;;;;;253.85;116.88;;;1.50;99.90;;;;;;5033512;28;20060;-73
2023/01/07 00:26:23;;;;;;;255.60;116.70;;;1.60;99.90;;;;;;5036919;28;20029;-73
2023/01/07 00:28:50;;;;;;;258.95;117.68;;;1.50;99.90;;;;;;5036808;28;20427;-73
2023/01/07 00:31:22;;;;;;;262.77;118.78;;;1.50;99.90;;;;;;5048713;28;20040;-73
2023/01/07 00:36:24;;;;;;;288.02;127.18;;;1.40;99.90;;;;;;5038730;28;20044;-73
2023/01/07 00:38:58;;;;;;;297.85;131.18;;;1.30;99.90;;;;;;5056723;28;20029;-73
2023/01/07 00:41:24;;;;;;;334.65;142.77;;;1.30;99.90;;;;;;5056522;28;20029;-73
2023/01/07 00:43:50;;;;;;;327.92;145.98;;;1.20;99.90;;;;;;5038660;28;20096;-72
2023/01/07 00:46:16;;;;;;;366.20;158.73;;;1.30;99.90;;;;;;5038716;28;20025;-72
2023/01/07 00:48:43;;;;;;;436.48;173.43;;;1.40;99.90;;;;;;5056312;28;20021;-73
2023/01/07 00:51:14;;;;;;;522.17;201.73;;;1.50;99.90;;;;;;5056504;28;20028;-73
2023/01/07 00:53:41;;;;;;;1984.57;706.00;;;1.50;99.90;;;;;;5056487;28;20018;-73
2023/01/07 00:56:09;;;;;;;1824.32;668.40;;;1.30;99.90;;;;;;5038323;28;20450;-73
2023/01/07 00:58:35;;;;;;;1548.65;598.47;;;1.20;99.90;;;;;;5056344;28;20025;-73
2023/01/07 01:01:01;;;;;;;778.00;318.65;;;1.10;99.90;;;;;;5038585;28;20051;-73
2023/01/07 01:03:28;;;;;;;487.40;188.50;;;1.20;99.90;;;;;;5054916;28;20355;-73
2023/01/07 01:06:01;;;;;;;436.23;167.53;;;1.30;99.90;;;;;;5011093;28;1252248;-73
2023/01/07 01:08:27;;;;;;;590.35;223.25;;;1.30;99.90;;;;;;5056233;28;20032;-73
2023/01/07 01:10:53;;;;;;;889.63;338.60;;;1.30;99.90;;;;;;5039165;28;20029;-73
2023/01/07 01:13:19;;;;;;;973.03;381.65;;;1.20;99.90;;;;;;5057392;28;20021;-73
2023/01/07 01:15:47;;;;;;;950.67;370.45;;;1.20;99.90;;;;;;5057413;28;20049;-72
2023/01/07 01:18:14;;;;;;;798.03;317.20;;;1.10;99.90;;;;;;5054587;28;20478;-72
2023/01/07 01:20:40;;;;;;;486.10;183.90;;;1.10;99.90;;;;;;5037411;28;20036;-73
2023/01/07 01:23:06;;;;;;;358.70;140.45;;;1.20;99.90;;;;;;5019374;28;20036;-73
2023/01/07 01:25:33;;;;;;;381.13;153.77;;;1.00;99.90;;;;;;5037044;28;20088;-73
2023/01/07 01:27:59;;;;;;;505.15;196.65;;;1.00;99.90;;;;;;5035942;28;20030;-73
2023/01/07 01:30:26;;;;;;;427.48;160.32;;;1.10;99.90;;;;;;5040600;28;20465;-73
2023/01/07 01:32:52;;;;;;;409.65;162.80;;;1.20;99.90;;;;;;5038996;28;20452;-73
2023/01/07 01:35:19;;;;;;;355.55;149.70;;;1.40;99.90;;;;;;5055342;28;20036;-73
2023/01/07 01:37:45;;;;;;;340.98;142.77;;;1.40;99.90;;;;;;5056960;28;20466;-72
2023/01/07 01:40:12;;;;;;;341.63;143.23;;;1.50;99.90;;;;;;5038879;28;20093;-72
2023/01/07 01:42:38;;;;;;;387.45;159.23;;;1.50;99.90;;;;;;5056785;28;20044;-72
2023/01/07 01:45:06;;;;;;;373.85;146.95;;;1.60;99.90;;;;;;5038688;28;20025;-72
2023/01/07 01:47:43;;;;;;;442.98;165.93;;;1.60;99.90;;;;;;5055318;28;20029;-72
2023/01/07 01:50:22;;;;;;;400.13;155.68;;;1.50;99.90;;;;;;5056702;28;20112;-73
2023/01/07 01:53:03;;;;;;;335.70;133.70;;;1.20;99.90;;;;;;5038691;28;20429;-73
2023/01/07 01:55:35;;;;;;;346.55;139.95;;;1.10;99.90;;;;;;5055193;28;20029;-73
2023/01/07 01:58:08;;;;;;;374.23;145.82;;;1.10;99.90;;;;;;5055146;28;20124;-72
2023/01/07 02:00:35;;;;;;;423.92;157.07;;;1.10;99.90;;;;;;5038467;28;20408;-73
2023/01/07 02:03:07;;;;;;;454.90;172.75;;;1.20;99.90;;;;;;5038545;28;20043;-73
2023/01/07 02:05:36;;;;;;;405.40;150.07;;;1.20;99.90;;;;;;5056447;28;20036;-72
2023/01/07 02:08:03;;;;;;;375.60;149.43;;;1.10;99.90;;;;;;5055924;28;20073;-73
2023/01/07 02:10:31;;;;;;;384.67;150.02;;;1.10;99.90;;;;;;5055027;28;20033;-72
2023/01/07 02:13:19;;;;;;;374.70;147.85;;;1.10;99.90;;;;;;5038473;28;20029;-72
2023/01/07 02:16:12;;;;;;;377.33;151.85;;;1.00;99.90;;;;;;5038368;28;20112;-72
2023/01/07 02:19:15;;;;;;;373.40;147.77;;;1.00;99.90;;;;;;5050153;28;20478;-73
2023/01/07 02:21:55;;;;;;;320.52;129.95;;;1.00;99.90;;;;;;5018299;28;20067;-72
2023/01/07 02:24:59;;;;;;;333.80;136.38;;;0.90;99.90;;;;;;5036188;28;20104;-73
2023/01/07 02:27:49;;;;;;;326.17;131.77;;;0.90;99.90;;;;;;5034832;28;20026;-73
2023/01/07 02:30:42;;;;;;;324.55;137.25;;;0.80;99.90;;;;;;5018459;28;20029;-73
2023/01/07 02:33:35;;;;;;;329.13;138.32;;;0.70;99.90;;;;;;5035859;28;20482;-72
2023/01/07 02:36:04;;;;;;;407.63;157.43;;;0.80;99.90;;;;;;5034546;28;20051;-72
2023/01/07 02:38:49;;;;;;;366.90;151.90;;;0.70;99.90;;;;;;5051267;28;20475;-73
2023/01/07 02:41:21;;;;;;;341.73;136.07;;;0.70;99.90;;;;;;5035840;28;20029;-73
2023/01/07 02:44:10;;;;;;;324.70;138.23;;;0.70;99.90;;;;;;5034465;28;20386;-73
2023/01/07 02:46:45;;;;;;;302.20;128.82;;;0.80;99.90;;;;;;5050270;28;20039;-73
2023/01/07 02:49:14;;;;;;;297.15;131.60;;;0.80;99.90;;;;;;5050892;28;20068;-72
2023/01/07 02:51:41;;;;;;;270.43;117.93;;;0.70;99.90;;;;;;5050897;28;20141;-72
2023/01/07 02:54:16;;;;;;;360.05;146.55;;;0.70;99.90;;;;;;5035644;28;20034;-73
2023/01/07 02:57:25;;;;;;;374.42;157.02;;;0.60;99.90;;;;;;5034183;28;20037;-72
2023/01/07 03:00:16;;;;;;;372.45;151.95;;;0.70;99.90;;;;;;5035487;28;20435;-73
2023/01/07 03:03:11;;;;;;;359.98;146.88;;;0.80;99.90;;;;;;5050849;28;20033;-73
2023/01/07 03:05:49;;;;;;;330.70;141.88;;;0.60;99.90;;;;;;5035338;28;20060;-73
2023/01/07 03:08:15;;;;;;;311.27;135.25;;;0.60;99.90;;;;;;5055072;28;20052;-73
2023/01/07 03:10:49;;;;;;;270.73;122.72;;;0.50;99.90;;;;;;5037240;28;20032;-73
2023/01/07 03:13:22;;;;;;;278.70;125.03;;;0.50;99.90;;;;;;5055277;28;20075;-73
2023/01/07 03:16:01;;;;;;;227.82;102.60;;;0.40;99.90;;;;;;5055128;28;20047;-72
2023/01/07 03:18:32;;;;;;;214.15;97.15;;;0.40;99.90;;;;;;5054785;28;20029;-73
2023/01/07 03:21:10;;;;;;;207.00;93.88;;;0.40;99.90;;;;;;5054932;28;20036;-73
2023/01/07 03:23:39;;;;;;;196.27;88.47;;;0.40;99.90;;;;;;5053944;28;20032;-72
2023/01/07 03:26:07;;;;;;;221.23;98.45;;;0.30;99.90;;;;;;5070121;28;20095;-73
2023/01/07 03:28:39;;;;;;;235.57;104.90;;;0.40;99.90;;;;;;5054983;28;20033;-73
2023/01/07 03:31:11;;;;;;;252.00;111.82;;;0.40;99.90;;;;;;5054983;28;20025;-73
2023/01/07 03:33:43;;;;;;;263.80;116.75;;;0.40;99.90;;;;;;5036735;28;20037;-73
2023/01/07 03:36:12;;;;;;;226.02;101.82;;;0.40;99.90;;;;;;5036878;28;20048;-73
2023/01/07 03:38:41;;;;;;;198.25;88.90;;;0.40;99.90;;;;;;5054721;28;20490;-73
2023/01/07 03:41:08;;;;;;;175.67;80.50;;;0.40;99.90;;;;;;5054571;28;20029;-72
2023/01/07 03:43:34;;;;;;;199.43;90.38;;;0.30;99.90;;;;;;5054728;28;20029;-73
2023/01/07 03:46:00;;;;;;;239.85;105.78;;;0.30;99.90;;;;;;5054212;28;20105;-73
2023/01/07 03:48:27;;;;;;;238.68;109.18;;;0.30;99.90;;;;;;5053205;28;20364;-72
2023/01/07 03:50:55;;;;;;;246.65;110.85;;;0.40;99.90;;;;;;5069948;28;20055;-72
2023/01/07 03:53:21;;;;;;;296.67;134.27;;;0.50;99.90;;;;;;5036550;28;20496;-72
2023/01/07 03:55:49;;;;;;;329.50;146.55;;;0.30;99.90;;;;;;5053185;28;20387;-72
2023/01/07 03:58:15;;;;;;;399.83;179.18;;;0.30;99.90;;;;;;5036332;28;20116;-73
2023/01/07 04:00:41;;;;;;;314.48;142.73;;;0.30;99.90;;;;;;5054349;28;20402;-73
2023/01/07 04:03:13;;;;;;;284.90;129.10;;;0.20;99.90;;;;;;5036596;28;20446;-73
2023/01/07 04:05:43;;;;;;;207.23;94.88;;;0.10;99.90;;;;;;5069676;28;20072;-72
2023/01/07 04:08:10;;;;;;;198.65;90.53;;;0.20;99.90;;;;;;5036481;28;20487;-72
2023/01/07 04:10:39;;;;;;;187.75;80.45;;;0.10;99.90;;;;;;5054251;28;20037;-72
2023/01/07 04:13:05;;;;;;;193.10;88.28;;;0.10;99.90;;;;;;5036315;28;20063;-73
2023/01/07 04:15:31;;;;;;;182.27;80.63;;;0.20;99.90;;;;;;5036394;28;20029;-72
2023/01/07 04:17:57;;;;;;;174.38;80.30;;;0.20;99.90;;;;;;5054041;28;20044;-72
2023/01/07 04:20:24;;;;;;;178.70;82.47;;;0.10;99.90;;;;;;5033023;28;20474;-72
2023/01/07 04:22:50;;;;;;;203.55;94.70;;;0.10;99.90;;;;;;5016419;28;20128;-73
2023/01/07 04:25:17;;;;;;;222.90;97.70;;;0.10;99.90;;;;;;5032970;28;20041;-72
2023/01/07 04:27:44;;;;;;;259.17;115.15;;;0.20;99.90;;;;;;5032919;28;20101;-73
2023/01/07 04:30:10;;;;;;;247.02;112.95;;;0.10;99.90;;;;;;5037244;28;20374;-72
2023/01/07 04:32:37;;;;;;;220.65;102.00;;;0.20;99.90;;;;;;5036161;28;20029;-72
2023/01/07 04:35:03;;;;;;;201.25;90.13;;;0.20;99.90;;;;;;5054209;28;20535;-72
2023/01/07 04:37:30;;;;;;;187.93;85.90;;;0.10;99.90;;;;;;5052897;28;20052;-73
2023/01/07 04:39:57;;;;;;;242.23;109.70;;;0.20;99.90;;;;;;5036158;28;20033;-72
2023/01/07 04:42:23;;;;;;;203.32;94.50;;;0.10;99.90;;;;;;5054090;28;20174;-73
2023/01/07 04:44:49;;;;;;;208.98;98.05;;;0.10;99.90;;;;;;5052527;28;20116;-73
2023/01/07 04:47:15;;;;;;;208.10;94.78;;;0.10;99.90;;;;;;5052788;28;20101;-73
2023/01/07 04:49:41;;;;;;;186.55;85.20;;;0.10;99.90;;;;;;5052527;28;20130;-73
2023/01/07 04:52:07;;;;;;;161.95;75.38;;;0.10;99.90;;;;;;5053856;28;20057;-73
2023/01/07 04:54:35;;;;;;;173.27;75.95;;;0.00;99.90;;;;;;5052360;28;20028;-73
2023/01/07 04:57:01;;;;;;;144.40;69.55;;;0.00;99.90;;;;;;5052662;28;20489;-73
2023/01/07 04:59:28;;;;;;;139.93;65.90;;;0.00;99.90;;;;;;5035978;28;20119;-73
2023/01/07 05:01:54;;;;;;;130.27;62.28;;;0.00;99.90;;;;;;5036034;28;20067;-73
2023/01/07 05:04:21;;;;;;;139.75;64.40;;;0.10;99.90;;;;;;5054075;28;20090;-73
2023/01/07 05:06:47;;;;;;;154.10;71.75;;;0.00;99.90;;;;;;5035687;28;20040;-73
2023/01/07 05:09:14;;;;;;;138.07;62.47;;;0.00;99.90;;;;;;5035918;28;20032;-73
2023/01/07 05:11:40;;;;;;;149.10;68.95;;;0.10;99.90;;;;;;5038705;28;20021;-73
2023/01/07 05:14:07;;;;;;;145.88;68.00;;;0.10;99.90;;;;;;5057436;28;20040;-73
2023/01/07 05:16:33;;;;;;;143.80;66.13;;;0.10;99.90;;;;;;5039366;28;20090;-73
2023/01/07 05:19:04;;;;;;;157.32;71.97;;;0.00;99.90;;;;;;5029764;28;20025;-73
2023/01/07 05:21:35;;;;;;;;;;;0.00;99.90;;;;;;5036306;28;20098;-73
2023/01/07 05:24:01;;;;;;;174.18;75.88;;;0.00;99.90;;;;;;5019597;28;19975;-73
2023/01/07 05:26:27;;;;;;;165.95;73.15;;;0.10;99.90;;;;;;5037080;28;20037;-73
2023/01/07 05:28:53;;;;;;;157.93;67.72;;;0.10;99.90;;;;;;5035962;28;20341;-73
2023/01/07 05:31:19;;;;;;;145.27;64.15;;;0.10;99.90;;;;;;5049432;28;20057;-73
2023/01/07 05:33:46;;;;;;;145.00;64.22;;;0.10;99.90;;;;;;5039059;28;20036;-73
2023/01/07 05:36:12;;;;;;;137.23;65.30;;;0.10;99.90;;;;;;5039162;28;20060;-73
2023/01/07 05:38:38;;;;;;;144.13;63.22;;;0.00;99.90;;;;;;5057009;28;20066;-73
2023/01/07 05:41:04;;;;;;;143.25;62.47;;;0.00;99.90;;;;;;5038857;28;20497;-73
2023/01/07 05:43:31;;;;;;;147.00;63.97;;;0.00;99.90;;;;;;5039023;28;20024;-73
2023/01/07 05:45:57;;;;;;;146.82;63.22;;;0.00;99.90;;;;;;5056742;28;20087;-73
2023/01/07 05:48:23;;;;;;;155.07;67.10;;;0.10;99.90;;;;;;5056604;28;20250;-73
2023/01/07 05:50:49;;;;;;;160.23;69.60;;;0.00;99.90;;;;;;5055538;28;20028;-73
2023/01/07 05:53:15;;;;;;;152.57;67.18;;;-0.10;99.90;;;;;;5056774;28;20410;-73
2023/01/07 05:55:41;;;;;;;169.85;77.53;;;0.00;99.90;;;;;;5038991;28;20083;-73
2023/01/07 05:58:08;;;;;;;146.07;68.45;;;-0.10;99.90;;;;;;5056506;28;20039;-73
2023/01/07 06:00:35;;;;;;;137.73;63.00;;;-0.10;99.90;;;;;;5056722;28;20450;-73
2023/01/07 06:03:02;;;;;;;142.55;64.35;;;-0.10;99.90;;;;;;5056336;28;20029;-73
2023/01/07 06:05:28;;;;;;;139.38;59.97;;;-0.20;99.90;;;;;;5056549;28;20082;-73
2023/01/07 06:07:54;;;;;;;126.05;56.10;;;-0.10;99.90;;;;;;5056273;28;20057;-73
2023/01/07 06:10:20;;;;;;;136.88;59.25;;;-0.10;99.90;;;;;;5056214;28;20071;-73
2023/01/07 06:12:46;;;;;;;130.77;56.70;;;-0.10;99.90;;;;;;5056218;28;20025;-73
2023/01/07 06:15:12;;;;;;;122.63;56.70;;;-0.10;99.90;;;;;;5056348;28;20052;-73
2023/01/07 06:17:38;;;;;;;130.57;57.30;;;0.10;99.90;;;;;;5056001;28;20470;-73
2023/01/07 06:20:05;;;;;;;135.35;61.58;;;0.20;99.90;;;;;;5038313;28;20403;-73
2023/01/07 06:22:31;;;;;;;128.82;59.47;;;0.30;99.90;;;;;;5034907;28;20026;-73
2023/01/07 06:24:57;;;;;;;135.07;59.08;;;0.40;99.90;;;;;;5036436;28;20568;-73
2023/01/07 06:27:23;;;;;;;246.23;105.60;;;0.30;99.90;;;;;;5036118;28;20052;-73
2023/01/07 06:29:49;;;;;;;239.68;101.63;;;0.20;99.90;;;;;;5036035;28;20542;-73
2023/01/07 06:32:15;;;;;;;248.27;105.07;;;0.10;99.90;;;;;;5016390;28;20025;-73
2023/01/07 06:34:41;;;;;;;306.15;127.43;;;0.10;99.90;;;;;;5016069;28;20080;-73
2023/01/07 06:37:07;;;;;;;275.30;117.03;;;0.10;99.90;;;;;;5016179;28;20065;-73
2023/01/07 06:39:32;;;;;;;202.48;87.07;;;0.10;99.90;;;;;;5016306;28;20038;-73
2023/01/07 06:41:58;;;;;;;192.65;81.95;;;0.20;99.90;;;;;;5016446;28;20026;-73
2023/01/07 06:44:24;;;;;;;178.07;68.75;;;0.20;99.90;;;;;;5016108;28;20034;-73
2023/01/07 06:46:50;;;;;;;210.15;73.28;;;0.20;99.90;;;;;;5015957;28;20030;-73
2023/01/07 06:49:16;;;;;;;194.23;70.90;;;0.20;99.90;;;;;;5015849;28;20026;-73
2023/01/07 06:51:42;;;;;;;196.05;72.82;;;0.20;99.90;;;;;;5015788;28;20042;-73
2023/01/07 06:54:09;;;;;;;220.52;73.70;;;0.20;99.90;;;;;;5015895;28;20056;-73
2023/01/07 06:56:35;;;;;;;186.60;71.32;;;0.20;99.90;;;;;;5015727;28;20501;-73
2023/01/07 06:59:01;;;;;;;173.43;71.70;;;0.20;99.90;;;;;;5015654;28;20042;-73
2023/01/07 07:01:27;;;;;;;175.90;71.85;;;0.20;99.90;;;;;;5015684;28;20083;-73
2023/01/07 07:03:53;;;;;;;186.23;75.38;;;0.30;99.90;;;;;;5015573;28;20037;-73
2023/01/07 07:06:19;;;;;;;205.20;83.13;;;0.30;99.90;;;;;;5020732;28;20084;-73
2023/01/07 07:08:44;;;;;;;180.63;74.93;;;0.30;99.90;;;;;;5035124;28;20029;-73
2023/01/07 07:11:10;;;;;;;180.10;74.60;;;0.50;99.90;;;;;;5035262;28;20017;-73
2023/01/07 07:13:36;;;;;;;162.35;70.72;;;1.30;99.90;;;;;;5035143;28;20453;-73
2023/01/07 07:16:03;;;;;;;176.98;72.82;;;2.40;99.90;;;;;;5035505;28;20104;-73
2023/01/07 07:18:29;;;;;;;198.18;87.53;;;3.50;99.90;;;;;;5039600;28;20090;-73
2023/01/07 07:20:57;;;;;;;184.55;82.55;;;3.80;99.90;;;;;;5054834;28;20039;-73
2023/01/07 07:23:23;;;;;;;231.35;102.88;;;4.70;99.90;;;;;;5054882;28;20033;-73
2023/01/07 07:25:49;;;;;;;215.90;97.15;;;5.50;99.90;;;;;;5054947;28;20097;-73
2023/01/07 07:28:16;;;;;;;230.52;106.13;;;6.40;99.90;;;;;;5054843;28;20108;-73
2023/01/07 07:30:42;;;;;;;230.68;106.07;;;7.10;99.90;;;;;;5055076;28;20025;-73
2023/01/07 07:33:08;;;;;;;247.52;117.35;;;7.90;96.20;;;;;;5054459;28;20020;-73
2023/01/07 07:35:34;;;;;;;232.63;106.82;;;7.60;96.20;;;;;;5054696;28;20409;-73
2023/01/07 07:38:00;;;;;;;231.88;109.25;;;8.20;96.00;;;;;;5054797;28;20053;-73
2023/01/07 07:40:26;;;;;;;245.10;116.45;;;9.80;93.10;;;;;;5054711;28;20025;-73
2023/01/07 07:42:52;;;;;;;252.07;123.07;;;10.60;84.00;;;;;;5054569;28;20057;-74
2023/01/07 07:45:18;;;;;;;263.38;123.78;;;11.10;74.50;;;;;;5054544;28;20071;-74
2023/01/07 07:47:45;;;;;;;267.02;124.80;;;11.70;71.70;;;;;;5054547;28;20037;-73
2023/01/07 07:50:11;;;;;;;292.10;137.40;;;12.50;69.20;;;;;;5054491;28;20077;-74
2023/01/07 07:52:37;;;;;;;321.40;145.00;;;11.30;70.00;;;;;;5054650;28;20025;-73
2023/01/07 07:55:03;;;;;;;295.40;140.38;;;11.30;71.90;;;;;;5054475;28;20356;-73
2023/01/07 07:57:29;;;;;;;216.10;110.05;;;11.10;70.90;;;;;;5054408;28;20029;-73
2023/01/07 07:59:55;;;;;;;177.27;86.70;;;12.00;69.20;;;;;;5054626;28;20079;-73
2023/01/07 08:02:21;;;;;;;172.90;82.13;;;12.70;62.10;;;;;;5054430;28;20029;-73
2023/01/07 08:04:47;;;;;;;169.07;81.75;;;13.80;58.00;;;;;;5054373;28;20083;-73
2023/01/07 08:07:13;;;;;;;187.57;89.25;;;13.20;60.60;;;;;;5054159;28;20076;-73
2023/01/07 08:09:39;;;;;;;174.43;89.53;;;14.10;56.80;;;;;;5054149;28;20025;-73
2023/01/07 08:12:05;;;;;;;174.55;89.10;;;14.50;55.40;;;;;;5054294;28;20033;-73
2023/01/07 08:14:31;;;;;;;179.05;90.97;;;14.30;55.40;;;;;;5054301;28;20036;-73
2023/01/07 08:16:57;;;;;;;186.50;95.82;;;15.30;53.10;;;;;;5054222;28;20112;-73
2023/01/07 08:19:23;;;;;;;194.95;98.40;;;14.60;53.50;;;;;;5054372;28;20124;-74
2023/01/07 08:21:50;;;;;;;191.00;96.43;;;13.50;56.50;;;;;;5054216;28;20112;-74
2023/01/07 08:24:16;;;;;;;182.40;93.80;;;14.10;55.90;;;;;;5054097;28;20056;-74
2023/01/07 08:26:42;;;;;;;178.27;94.05;;;14.20;55.70;;;;;;5054208;28;20068;-73
2023/01/07 08:29:08;;;;;;;171.77;91.38;;;14.20;56.60;;;;;;5054002;28;20471;-74
2023/01/07 08:31:34;;;;;;;158.55;88.90;;;15.00;55.00;;;;;;5053914;28;20029;-73
2023/01/07 08:34:00;;;;;;;157.73;88.00;;;13.50;55.30;;;;;;5054129;28;20192;-73
2023/01/07 08:36:26;;;;;;;172.25;96.35;;;13.90;56.90;;;;;;5053971;28;20033;-73
2023/01/07 08:38:54;;;;;;;179.82;96.85;;;13.10;59.40;;;;;;5053977;28;20056;-73
2023/01/07 08:41:23;;;;;;;172.80;98.93;;;13.80;58.40;;;;;;5052682;28;20043;-73
2023/01/07 08:43:50;;;;;;;186.67;107.67;;;14.80;57.10;;;;;;5054303;28;20029;-74
2023/01/07 08:46:16;;;;;;;195.98;105.57;;;15.00;54.70;;;;;;5056226;28;20382;-73
2023/01/07 08:48:41;;;;;;;190.00;106.30;;;15.30;54.20;;;;;;5058046;28;20028;-73
2023/01/07 08:51:07;;;;;;;178.50;100.50;;;14.00;57.00;;;;;;5056656;28;20029;-73
2023/01/07 08:53:34;;;;;;;160.52;89.90;;;14.70;57.50;;;;;;5058098;28;20032;-73
2023/01/07 08:56:00;;;;;;;159.25;93.13;;;15.40;54.70;;;;;;5057872;28;20021;-73
2023/01/07 08:58:26;;;;;;;188.45;102.93;;;15.20;53.90;;;;;;5057635;28;20043;-74
2023/01/07 09:00:52;;;;;;;176.45;97.30;;;14.50;54.80;;;;;;5057604;28;20037;-73
2023/01/07 09:03:18;;;;;;;153.57;87.82;;;14.10;56.20;;;;;;5057707;28;20025;-73
2023/01/07 09:05:47;;;;;;;155.57;91.38;;;15.00;56.70;;;;;;5057501;28;20033;-73
2023/01/07 09:08:13;;;;;;;160.10;90.88;;;14.80;56.90;;;;;;5057342;28;20029;-74
2023/01/07 09:10:39;;;;;;;168.40;90.35;;;15.20;56.50;;;;;;5057379;28;20029;-73
2023/01/07 09:13:05;;;;;;;144.73;86.22;;;15.00;55.20;;;;;;5057322;28;20070;-74
2023/01/07 09:15:31;;;;;;;152.15;88.32;;;14.70;55.80;;;;;;5057386;28;20029;-74
2023/01/07 09:17:57;;;;;;;151.90;85.70;;;14.90;55.00;;;;;;5057228;28;20025;-74
2023/01/07 09:20:22;;;;;;;141.75;82.25;;;15.40;55.90;;;;;;5057268;28;20060;-74
2023/01/07 09:22:48;;;;;;;148.52;86.43;;;15.90;53.90;;;;;;5057029;28;20027;-74
2023/01/07 09:25:14;;;;;;;151.00;83.75;;;16.30;53.10;;;;;;5057150;28;20040;-73
2023/01/07 09:27:41;;;;;;;143.50;82.88;;;16.30;52.40;;;;;;5057086;28;20037;-73
2023/01/07 09:30:08;;;;;;;147.82;83.07;;;16.40;52.60;;;;;;5056989;28;20038;-73
2023/01/07 09:32:34;;;;;;;150.38;84.40;;;15.90;53.40;;;;;;5057073;28;20468;-73
2023/01/07 09:35:00;;;;;;;145.45;82.85;;;16.80;51.80;;;;;;5056956;28;20021;-73
2023/01/07 09:37:26;;;;;;;147.80;79.70;;;17.00;51.50;;;;;;5056903;28;20113;-73
2023/01/07 09:39:56;;;;;;;157.45;83.72;;;17.00;50.60;;;;;;5056891;28;20033;-74
2023/01/07 09:42:49;;;;;;;129.87;76.70;;;16.90;51.90;;;;;;5056780;28;20116;-73
2023/01/07 09:45:17;;;;;;;135.80;78.35;;;16.80;51.90;;;;;;5055614;28;20033;-73
2023/01/07 09:47:48;;;;;;;129.02;74.03;;;17.20;51.30;;;;;;5057003;28;20075;-73
2023/01/07 09:50:23;;;;;;;132.70;76.47;;;16.70;53.10;;;;;;5056707;28;20029;-73
2023/01/07 09:52:56;;;;;;;126.18;71.55;;;17.00;52.40;;;;;;5056745;28;20043;-73
2023/01/07 09:55:35;;;;;;;135.00;73.78;;;17.10;52.30;;;;;;5056781;28;20029;-73
2023/01/07 09:58:01;;;;;;;139.40;74.55;;;17.10;52.00;;;;;;5056287;28;20029;-73
2023/01/07 10:00:28;;;;;;;132.35;73.10;;;16.60;53.20;;;;;;5056815;28;20108;-73
2023/01/07 10:03:21;;;;;;;119.55;70.13;;;16.40;53.60;;;;;;5056557;28;20057;-73
2023/01/07 10:06:02;;;;;;;126.90;72.70;;;17.10;52.30;;;;;;5056323;28;20117;-73
2023/01/07 10:08:39;;;;;;;124.07;70.57;;;16.50;53.40;;;;;;5056249;28;20067;-73
2023/01/07 10:11:26;;;;;;;119.95;69.68;;;17.20;52.70;;;;;;5056273;28;20032;-73
2023/01/07 10:13:55;;;;;;;120.13;63.80;;;17.40;52.40;;;;;;5056351;28;20425;-73
2023/01/07 10:16:46;;;;;;;118.65;59.80;;;17.80;50.80;;;;;;5056305;28;20025;-73
2023/01/07 10:19:28;;;;;;;101.65;54.47;;;17.60;50.60;;;;;;5056134;28;20032;-73
2023/01/07 10:22:00;;;;;;;101.65;53.53;;;17.90;50.50;;;;;;5056112;28;20494;-73
2023/01/07 10:24:30;;;;;;;97.78;52.72;;;18.20;49.60;;;;;;5056270;28;20025;-74
2023/01/07 10:26:59;;;;;;;;;;;17.80;50.40;;;;;;5055070;28;20031;-74
2023/01/07 10:29:33;;;;;;;89.60;50.50;;;18.00;49.80;;;;;;5055949;28;19920;-73
2023/01/07 10:32:16;;;;;;;83.68;47.70;;;18.30;50.00;;;;;;5055767;28;20096;-73
2023/01/07 10:34:46;;;;;;;80.80;44.33;;;18.20;49.60;;;;;;5056012;28;20091;-73
2023/01/07 10:37:27;;;;;;;74.47;43.50;;;18.90;48.20;;;;;;5055907;28;20037;-73
2023/01/07 10:39:59;;;;;;;75.43;42.30;;;18.90;47.90;;;;;;5055744;28;20029;-74
2023/01/07 10:42:50;;;;;;;82.80;43.05;;;18.80;47.10;;;;;;5055720;28;20074;-74
2023/01/07 10:45:52;;;;;;;75.10;43.67;;;18.50;48.00;;;;;;5055660;28;20025;-74
2023/01/07 10:48:54;;;;;;;83.25;42.13;;;19.00;45.80;;;;;;5055461;28;20055;-73
2023/01/07 10:51:44;;;;;;;74.85;43.47;;;18.40;46.80;;;;;;5055605;28;20485;-74
2023/01/07 10:54:32;;;;;;;72.97;40.13;;;18.30;46.40;;;;;;5055398;28;20411;-74
2023/01/07 10:57:06;;;;;;;82.38;44.17;;;18.80;46.80;;;;;;5055391;28;20409;-74
2023/01/07 10:59:33;;;;;;;91.80;46.47;;;18.80;45.90;;;;;;5055563;28;20139;-74
2023/01/07 11:01:59;;;;;;;83.68;48.58;;;17.80;48.20;;;;;;5055310;28;20490;-74
2023/01/07 11:04:25;;;;;;;92.95;48.67;;;18.30;46.90;;;;;;5055330;28;20454;-74
2023/01/07 11:06:58;;;;;;;89.75;50.35;;;19.00;46.30;;;;;;5055005;28;20055;-74
2023/01/07 11:09:31;;;;;;;91.57;50.80;;;18.70;46.50;;;;;;5054458;28;20108;-74
2023/01/07 11:12:34;;;;;;;98.35;54.15;;;19.40;45.10;;;;;;5055142;28;20035;-73
2023/01/07 11:15:07;;;;;;;102.95;55.42;;;19.60;45.00;;;;;;5055046;28;20462;-73
2023/01/07 11:17:43;;;;;;;113.13;57.67;;;19.40;44.30;;;;;;5055145;28;20025;-73
2023/01/07 11:20:09;;;;;;;91.95;54.17;;;19.20;44.80;;;;;;5055039;28;20025;-74
2023/01/07 11:22:37;;;;;;;105.00;57.15;;;19.30;44.90;;;;;;5054851;28;20108;-74
2023/01/07 11:25:26;;;;;;;98.93;54.50;;;19.50;43.90;;;;;;5054910;28;20025;-74
2023/01/07 11:27:54;;;;;;;97.85;53.47;;;19.40;44.70;;;;;;5055126;28;20028;-73
2023/01/07 11:30:24;;;;;;;93.15;50.75;;;19.60;44.00;;;;;;5054421;28;20021;-73
2023/01/07 11:32:56;;;;;;;;;;;19.40;43.70;;;;;;5055342;28;20028;-73
2023/01/07 11:35:23;;;;;;;98.10;52.72;;;19.20;44.90;;;;;;5054663;28;19912;-73
2023/01/07 11:37:49;;;;;;;117.50;57.13;;;19.30;44.80;;;;;;5054636;28;20035;-74
2023/01/07 11:40:16;;;;;;;95.93;52.97;;;19.70;44.00;;;;;;5054764;28;20025;-73
2023/01/07 11:42:51;;;;;;;103.70;53.17;;;20.00;43.80;;;;;;5054672;28;20542;-74
2023/01/07 11:45:22;;;;;;;95.68;50.28;;;19.60;43.10;;;;;;5054689;28;20035;-74
2023/01/07 11:47:57;;;;;;;86.22;49.25;;;19.80;43.30;;;;;;5054561;28;20029;-74
2023/01/07 11:50:52;;;;;;;80.85;45.55;;;20.30;41.90;;;;;;5054283;28;20588;-74
2023/01/07 11:53:18;;;;;;;85.95;46.13;;;20.50;41.10;;;;;;5054550;28;20047;-73
2023/01/07 11:55:56;;;;;;;75.95;42.03;;;20.60;41.00;;;;;;5054535;28;20124;-74
2023/01/07 11:58:23;;;;;;;81.35;42.83;;;20.70;40.40;;;;;;5054416;28;20064;-74
2023/01/07 12:01:07;;;;;;;77.65;43.08;;;20.50;41.30;;;;;;5054376;28;20040;-74
2023/01/07 12:03:39;;;;;;;72.82;41.65;;;21.20;39.70;;;;;;5054328;28;20536;-74
2023/01/07 12:06:34;;;;;;;68.32;40.25;;;20.90;39.80;;;;;;5053978;28;20554;-74
2023/01/07 12:09:18;;;;;;;75.30;42.30;;;21.00;38.40;;;;;;5046074;28;20048;-74
2023/01/07 12:11:44;;;;;;;78.72;41.08;;;20.40;39.70;;;;;;5054268;28;20452;-74
2023/01/07 12:14:23;;;;;;;70.70;39.22;;;20.90;39.50;;;;;;5054035;28;20032;-74
2023/01/07 12:16:50;;;;;;;71.18;38.90;;;20.40;39.10;;;;;;5054182;28;20497;-74
2023/01/07 12:19:54;;;;;;;74.75;38.08;;;20.10;40.20;;;;;;5043799;28;20115;-74
2023/01/07 12:22:38;;;;;;;67.70;35.78;;;20.40;40.80;;;;;;5038487;28;20083;-74
2023/01/07 12:25:22;;;;;;;76.80;36.08;;;20.30;39.60;;;;;;5038865;28;20033;-73
2023/01/07 12:27:59;;;;;;;74.35;35.50;;;21.00;38.90;;;;;;5038097;28;20494;-74
2023/01/07 12:31:05;;;;;;;71.80;37.10;;;21.10;38.40;;;;;;5043107;28;20111;-74
2023/01/07 12:33:37;;;;;;;69.78;34.63;;;21.20;37.90;;;;;;5058056;28;20079;-74
2023/01/07 12:36:12;;;;;;;70.97;34.50;;;21.60;37.00;;;;;;5058171;28;20021;-74
2023/01/07 12:38:53;;;;;;;64.13;33.35;;;21.30;38.00;;;;;;5058096;28;20036;-74
2023/01/07 12:41:28;;;;;;;66.22;31.98;;;21.40;36.80;;;;;;5057994;28;20029;-74